sensor_id;sensor_type;location;lat;lon;timestamp;temperature;humidity
45060;DHT22;30799;49.060;9.312;2023-03-23T00:00:38;20.90;57.20
45060;DHT22;30799;49.060;9.312;2023-03-23T00:03:04;20.90;57.10
45060;DHT22;30799;49.060;9.312;2023-03-23T00:05:29;20.90;57.10
45060;DHT22;30799;49.060;9.312;2023-03-23T00:07:55;20.90;57.10
45060;DHT22;30799;49.060;9.312;2023-03-23T00:10:20;20.90;57.00
45060;DHT22;30799;49.060;9.312;2023-03-23T00:12:46;20.90;57.00
45060;DHT22;30799;49.060;9.312;2023-03-23T00:15:15;20.90;57.00
45060;DHT22;30799;49.060;9.312;2023-03-23T00:17:42;20.90;57.00
45060;DHT22;30799;49.060;9.312;2023-03-23T00:20:08;20.90;57.00
45060;DHT22;30799;49.060;9.312;2023-03-23T00:22:37;20.90;57.00
45060;DHT22;30799;49.060;9.312;2023-03-23T00:25:05;20.90;57.00
45060;DHT22;30799;49.060;9.312;2023-03-23T00:27:31;20.90;57.00
45060;DHT22;30799;49.060;9.312;2023-03-23T00:29:57;20.90;57.00
45060;DHT22;30799;49.060;9.312;2023-03-23T00:32:23;20.90;57.00
45060;DHT22;30799;49.060;9.312;2023-03-23T00:34:56;20.90;56.90
45060;DHT22;30799;49.060;9.312;2023-03-23T00:37:24;20.90;57.00
45060;DHT22;30799;49.060;9.312;2023-03-23T00:39:49;20.90;57.60
45060;DHT22;30799;49.060;9.312;2023-03-23T00:42:17;20.90;57.00
45060;DHT22;30799;49.060;9.312;2023-03-23T00:44:47;20.90;57.00
45060;DHT22;30799;49.060;9.312;2023-03-23T00:47:13;20.90;57.00
45060;DHT22;30799;49.060;9.312;2023-03-23T00:49:40;20.90;57.00
45060;DHT22;30799;49.060;9.312;2023-03-23T00:52:06;20.90;57.00
45060;DHT22;30799;49.060;9.312;2023-03-23T00:54:32;20.90;57.00
45060;DHT22;30799;49.060;9.312;2023-03-23T00:56:58;20.90;57.00
45060;DHT22;30799;49.060;9.312;2023-03-23T00:59:24;20.90;57.20
45060;DHT22;30799;49.060;9.312;2023-03-23T01:01:49;20.90;57.00
45060;DHT22;30799;49.060;9.312;2023-03-23T01:04:15;20.90;56.90
45060;DHT22;30799;49.060;9.312;2023-03-23T01:06:42;20.90;56.90
45060;DHT22;30799;49.060;9.312;2023-03-23T01:09:08;20.90;56.90
45060;DHT22;30799;49.060;9.312;2023-03-23T01:11:34;20.90;56.90
45060;DHT22;30799;49.060;9.312;2023-03-23T01:14:00;20.90;56.90
45060;DHT22;30799;49.060;9.312;2023-03-23T01:16:26;20.90;56.90
45060;DHT22;30799;49.060;9.312;2023-03-23T01:18:52;20.90;56.90
45060;DHT22;30799;49.060;9.312;2023-03-23T01:21:18;20.90;56.90
45060;DHT22;30799;49.060;9.312;2023-03-23T01:23:44;20.90;56.90
45060;DHT22;30799;49.060;9.312;2023-03-23T01:26:11;20.90;56.90
45060;DHT22;30799;49.060;9.312;2023-03-23T01:28:37;20.90;56.90
45060;DHT22;30799;49.060;9.312;2023-03-23T01:31:04;20.90;56.80
45060;DHT22;30799;49.060;9.312;2023-03-23T01:33:30;20.90;56.90
45060;DHT22;30799;49.060;9.312;2023-03-23T01:35:56;20.90;56.90
45060;DHT22;30799;49.060;9.312;2023-03-23T01:38:21;20.90;56.90
45060;DHT22;30799;49.060;9.312;2023-03-23T01:40:47;20.90;56.80
45060;DHT22;30799;49.060;9.312;2023-03-23T01:43:13;20.90;56.90
45060;DHT22;30799;49.060;9.312;2023-03-23T01:45:39;20.90;56.90
45060;DHT22;30799;49.060;9.312;2023-03-23T01:48:10;20.90;56.80
45060;DHT22;30799;49.060;9.312;2023-03-23T01:50:42;20.90;57.40
45060;DHT22;30799;49.060;9.312;2023-03-23T01:53:10;20.90;56.90
45060;DHT22;30799;49.060;9.312;2023-03-23T01:55:37;20.90;56.90
45060;DHT22;30799;49.060;9.312;2023-03-23T01:58:03;20.90;56.90
45060;DHT22;30799;49.060;9.312;2023-03-23T02:00:29;20.90;56.90
45060;DHT22;30799;49.060;9.312;2023-03-23T02:02:55;20.90;56.90
45060;DHT22;30799;49.060;9.312;2023-03-23T02:05:32;20.90;56.90
45060;DHT22;30799;49.060;9.312;2023-03-23T02:07:59;20.90;56.90
45060;DHT22;30799;49.060;9.312;2023-03-23T02:10:29;20.90;56.90
45060;DHT22;30799;49.060;9.312;2023-03-23T02:12:55;20.80;56.80
45060;DHT22;30799;49.060;9.312;2023-03-23T02:15:20;20.90;56.80
45060;DHT22;30799;49.060;9.312;2023-03-23T02:17:57;20.90;56.90
45060;DHT22;30799;49.060;9.312;2023-03-23T02:23:19;20.90;56.80
45060;DHT22;30799;49.060;9.312;2023-03-23T02:28:42;20.90;56.80
45060;DHT22;30799;49.060;9.312;2023-03-23T02:31:18;20.90;57.40
45060;DHT22;30799;49.060;9.312;2023-03-23T02:33:58;20.90;56.80
45060;DHT22;30799;49.060;9.312;2023-03-23T02:36:28;20.90;56.80
45060;DHT22;30799;49.060;9.312;2023-03-23T02:41:27;20.90;56.80
45060;DHT22;30799;49.060;9.312;2023-03-23T02:43:53;20.80;56.80
45060;DHT22;30799;49.060;9.312;2023-03-23T02:46:20;20.80;56.70
45060;DHT22;30799;49.060;9.312;2023-03-23T02:48:47;20.90;56.80
45060;DHT22;30799;49.060;9.312;2023-03-23T02:51:16;20.80;56.80
45060;DHT22;30799;49.060;9.312;2023-03-23T02:53:43;20.80;56.80
45060;DHT22;30799;49.060;9.312;2023-03-23T02:56:10;20.90;56.80
45060;DHT22;30799;49.060;9.312;2023-03-23T02:58:36;20.80;56.80
45060;DHT22;30799;49.060;9.312;2023-03-23T03:01:45;20.80;56.80
45060;DHT22;30799;49.060;9.312;2023-03-23T03:04:05;20.80;56.80
45060;DHT22;30799;49.060;9.312;2023-03-23T03:06:34;20.80;56.70
45060;DHT22;30799;49.060;9.312;2023-03-23T03:09:07;20.80;56.80
45060;DHT22;30799;49.060;9.312;2023-03-23T03:11:37;20.80;56.80
45060;DHT22;30799;49.060;9.312;2023-03-23T03:14:05;20.80;56.70
45060;DHT22;30799;49.060;9.312;2023-03-23T03:16:38;20.80;56.70
45060;DHT22;30799;49.060;9.312;2023-03-23T03:19:17;20.90;56.80
45060;DHT22;30799;49.060;9.312;2023-03-23T03:21:44;20.80;56.70
45060;DHT22;30799;49.060;9.312;2023-03-23T03:24:11;20.90;56.80
45060;DHT22;30799;49.060;9.312;2023-03-23T03:26:38;20.80;56.80
45060;DHT22;30799;49.060;9.312;2023-03-23T03:29:04;20.80;56.70
45060;DHT22;30799;49.060;9.312;2023-03-23T03:31:32;20.80;56.70
45060;DHT22;30799;49.060;9.312;2023-03-23T03:33:58;20.80;56.80
45060;DHT22;30799;49.060;9.312;2023-03-23T03:36:27;20.80;56.70
45060;DHT22;30799;49.060;9.312;2023-03-23T03:39:09;20.80;56.80
45060;DHT22;30799;49.060;9.312;2023-03-23T03:41:35;20.80;56.70
45060;DHT22;30799;49.060;9.312;2023-03-23T03:44:01;20.80;56.70
45060;DHT22;30799;49.060;9.312;2023-03-23T03:46:26;20.90;56.80
45060;DHT22;30799;49.060;9.312;2023-03-23T03:48:55;20.90;56.80
45060;DHT22;30799;49.060;9.312;2023-03-23T03:51:22;20.80;56.80
45060;DHT22;30799;49.060;9.312;2023-03-23T03:53:48;20.80;56.80
45060;DHT22;30799;49.060;9.312;2023-03-23T03:56:13;20.80;56.70
45060;DHT22;30799;49.060;9.312;2023-03-23T03:58:39;20.80;56.70
45060;DHT22;30799;49.060;9.312;2023-03-23T04:01:10;20.80;56.70
45060;DHT22;30799;49.060;9.312;2023-03-23T04:03:36;20.80;56.70
45060;DHT22;30799;49.060;9.312;2023-03-23T04:06:02;20.80;56.80
45060;DHT22;30799;49.060;9.312;2023-03-23T04:08:28;20.80;56.70
45060;DHT22;30799;49.060;9.312;2023-03-23T04:10:53;20.80;56.70
45060;DHT22;30799;49.060;9.312;2023-03-23T04:13:19;20.80;56.70
45060;DHT22;30799;49.060;9.312;2023-03-23T04:15:46;20.80;56.70
45060;DHT22;30799;49.060;9.312;2023-03-23T04:18:12;20.80;56.70
45060;DHT22;30799;49.060;9.312;2023-03-23T04:20:38;20.80;56.70
45060;DHT22;30799;49.060;9.312;2023-03-23T04:23:03;20.80;56.80
45060;DHT22;30799;49.060;9.312;2023-03-23T04:25:29;20.80;56.70
45060;DHT22;30799;49.060;9.312;2023-03-23T04:27:58;20.80;56.70
45060;DHT22;30799;49.060;9.312;2023-03-23T04:30:26;20.80;56.70
45060;DHT22;30799;49.060;9.312;2023-03-23T04:32:52;20.80;56.70
45060;DHT22;30799;49.060;9.312;2023-03-23T04:35:20;20.80;56.70
45060;DHT22;30799;49.060;9.312;2023-03-23T04:37:46;20.80;56.70
45060;DHT22;30799;49.060;9.312;2023-03-23T04:40:12;20.80;56.70
45060;DHT22;30799;49.060;9.312;2023-03-23T04:42:40;20.80;56.70
45060;DHT22;30799;49.060;9.312;2023-03-23T04:45:07;20.80;56.60
45060;DHT22;30799;49.060;9.312;2023-03-23T04:47:33;20.80;56.70
45060;DHT22;30799;49.060;9.312;2023-03-23T04:49:59;20.80;56.60
45060;DHT22;30799;49.060;9.312;2023-03-23T04:52:26;20.80;56.60
45060;DHT22;30799;49.060;9.312;2023-03-23T04:54:53;20.80;56.70
45060;DHT22;30799;49.060;9.312;2023-03-23T04:57:21;20.80;56.70
45060;DHT22;30799;49.060;9.312;2023-03-23T04:59:47;20.80;56.70
45060;DHT22;30799;49.060;9.312;2023-03-23T05:02:12;20.80;56.70
45060;DHT22;30799;49.060;9.312;2023-03-23T05:04:38;20.80;56.60
45060;DHT22;30799;49.060;9.312;2023-03-23T05:07:06;20.80;56.60
45060;DHT22;30799;49.060;9.312;2023-03-23T05:09:32;20.80;56.60
45060;DHT22;30799;49.060;9.312;2023-03-23T05:11:57;20.80;56.60
45060;DHT22;30799;49.060;9.312;2023-03-23T05:14:24;20.80;56.60
45060;DHT22;30799;49.060;9.312;2023-03-23T05:16:50;20.80;56.60
45060;DHT22;30799;49.060;9.312;2023-03-23T05:19:17;20.80;56.60
45060;DHT22;30799;49.060;9.312;2023-03-23T05:21:42;20.80;56.60
45060;DHT22;30799;49.060;9.312;2023-03-23T05:24:10;20.80;56.60
45060;DHT22;30799;49.060;9.312;2023-03-23T05:26:35;20.80;56.60
45060;DHT22;30799;49.060;9.312;2023-03-23T05:29:01;20.80;56.60
45060;DHT22;30799;49.060;9.312;2023-03-23T05:31:26;20.80;56.60
45060;DHT22;30799;49.060;9.312;2023-03-23T05:33:52;20.90;56.70
45060;DHT22;30799;49.060;9.312;2023-03-23T05:36:17;20.80;56.60
45060;DHT22;30799;49.060;9.312;2023-03-23T05:38:43;20.80;56.60
45060;DHT22;30799;49.060;9.312;2023-03-23T05:41:13;20.80;56.60
45060;DHT22;30799;49.060;9.312;2023-03-23T05:43:39;20.80;56.60
45060;DHT22;30799;49.060;9.312;2023-03-23T05:46:04;20.80;56.60
45060;DHT22;30799;49.060;9.312;2023-03-23T05:48:30;20.80;56.60
45060;DHT22;30799;49.060;9.312;2023-03-23T05:50:55;20.80;56.60
45060;DHT22;30799;49.060;9.312;2023-03-23T05:53:22;20.80;56.60
45060;DHT22;30799;49.060;9.312;2023-03-23T05:55:48;20.80;56.60
45060;DHT22;30799;49.060;9.312;2023-03-23T05:58:14;20.80;56.60
45060;DHT22;30799;49.060;9.312;2023-03-23T06:00:40;20.80;56.70
45060;DHT22;30799;49.060;9.312;2023-03-23T06:03:05;20.80;56.60
45060;DHT22;30799;49.060;9.312;2023-03-23T06:05:31;20.80;56.70
45060;DHT22;30799;49.060;9.312;2023-03-23T06:07:58;20.80;56.70
45060;DHT22;30799;49.060;9.312;2023-03-23T06:10:24;20.80;56.70
45060;DHT22;30799;49.060;9.312;2023-03-23T06:12:50;20.70;53.90
45060;DHT22;30799;49.060;9.312;2023-03-23T06:15:16;20.00;47.90
45060;DHT22;30799;49.060;9.312;2023-03-23T06:17:42;19.60;48.00
45060;DHT22;30799;49.060;9.312;2023-03-23T06:20:08;19.40;47.60
45060;DHT22;30799;49.060;9.312;2023-03-23T06:22:38;19.30;47.10
45060;DHT22;30799;49.060;9.312;2023-03-23T06:25:08;19.20;47.40
45060;DHT22;30799;49.060;9.312;2023-03-23T06:27:34;19.00;47.40
45060;DHT22;30799;49.060;9.312;2023-03-23T06:30:01;19.00;47.50
45060;DHT22;30799;49.060;9.312;2023-03-23T06:32:27;18.90;47.70
45060;DHT22;30799;49.060;9.312;2023-03-23T06:34:53;18.90;47.50
45060;DHT22;30799;49.060;9.312;2023-03-23T06:37:19;18.90;47.70
45060;DHT22;30799;49.060;9.312;2023-03-23T06:39:46;18.80;48.20
45060;DHT22;30799;49.060;9.312;2023-03-23T06:42:11;18.80;48.40
45060;DHT22;30799;49.060;9.312;2023-03-23T06:44:37;19.30;49.40
45060;DHT22;30799;49.060;9.312;2023-03-23T06:47:03;19.70;48.90
45060;DHT22;30799;49.060;9.312;2023-03-23T06:49:29;19.90;50.90
45060;DHT22;30799;49.060;9.312;2023-03-23T06:51:54;20.00;51.10
45060;DHT22;30799;49.060;9.312;2023-03-23T06:54:21;20.10;51.70
45060;DHT22;30799;49.060;9.312;2023-03-23T06:56:47;20.10;54.10
45060;DHT22;30799;49.060;9.312;2023-03-23T06:59:12;20.10;55.30
45060;DHT22;30799;49.060;9.312;2023-03-23T07:01:39;20.10;56.10
45060;DHT22;30799;49.060;9.312;2023-03-23T07:04:05;20.20;57.20
45060;DHT22;30799;49.060;9.312;2023-03-23T07:06:30;20.20;57.20
45060;DHT22;30799;49.060;9.312;2023-03-23T07:08:56;20.20;57.10
45060;DHT22;30799;49.060;9.312;2023-03-23T07:11:22;20.20;57.00
45060;DHT22;30799;49.060;9.312;2023-03-23T07:13:48;20.20;57.30
45060;DHT22;30799;49.060;9.312;2023-03-23T07:16:15;20.20;56.60
45060;DHT22;30799;49.060;9.312;2023-03-23T07:18:41;20.20;56.50
45060;DHT22;30799;49.060;9.312;2023-03-23T07:21:07;20.30;56.30
45060;DHT22;30799;49.060;9.312;2023-03-23T07:23:32;20.30;56.30
45060;DHT22;30799;49.060;9.312;2023-03-23T07:25:58;20.30;56.10
45060;DHT22;30799;49.060;9.312;2023-03-23T07:28:23;20.30;56.10
45060;DHT22;30799;49.060;9.312;2023-03-23T07:30:49;20.30;56.10
45060;DHT22;30799;49.060;9.312;2023-03-23T07:33:14;20.30;56.10
45060;DHT22;30799;49.060;9.312;2023-03-23T07:35:40;20.30;56.10
45060;DHT22;30799;49.060;9.312;2023-03-23T07:38:06;20.30;56.00
45060;DHT22;30799;49.060;9.312;2023-03-23T07:40:32;20.30;56.00
45060;DHT22;30799;49.060;9.312;2023-03-23T07:43:01;20.30;56.00
45060;DHT22;30799;49.060;9.312;2023-03-23T07:45:27;20.30;55.90
45060;DHT22;30799;49.060;9.312;2023-03-23T07:47:53;20.30;55.90
45060;DHT22;30799;49.060;9.312;2023-03-23T07:50:19;20.30;55.90
45060;DHT22;30799;49.060;9.312;2023-03-23T07:52:56;20.30;55.90
45060;DHT22;30799;49.060;9.312;2023-03-23T07:55:22;20.30;55.80
45060;DHT22;30799;49.060;9.312;2023-03-23T07:57:50;20.30;55.80
45060;DHT22;30799;49.060;9.312;2023-03-23T08:00:17;20.30;55.80
45060;DHT22;30799;49.060;9.312;2023-03-23T08:02:58;20.30;55.80
45060;DHT22;30799;49.060;9.312;2023-03-23T08:05:25;20.30;55.80
45060;DHT22;30799;49.060;9.312;2023-03-23T08:07:52;20.30;55.70
45060;DHT22;30799;49.060;9.312;2023-03-23T08:10:19;20.30;55.70
45060;DHT22;30799;49.060;9.312;2023-03-23T08:12:49;20.30;55.70
45060;DHT22;30799;49.060;9.312;2023-03-23T08:15:15;20.30;55.70
45060;DHT22;30799;49.060;9.312;2023-03-23T08:17:41;20.40;55.70
45060;DHT22;30799;49.060;9.312;2023-03-23T08:20:07;20.40;55.70
45060;DHT22;30799;49.060;9.312;2023-03-23T08:22:38;20.40;55.70
45060;DHT22;30799;49.060;9.312;2023-03-23T08:25:05;20.40;55.70
45060;DHT22;30799;49.060;9.312;2023-03-23T08:27:31;20.30;55.70
45060;DHT22;30799;49.060;9.312;2023-03-23T08:29:57;20.30;55.60
45060;DHT22;30799;49.060;9.312;2023-03-23T08:32:22;20.40;55.70
45060;DHT22;30799;49.060;9.312;2023-03-23T08:34:49;20.30;55.60
45060;DHT22;30799;49.060;9.312;2023-03-23T08:37:15;20.30;55.70
45060;DHT22;30799;49.060;9.312;2023-03-23T08:39:40;20.40;55.60
45060;DHT22;30799;49.060;9.312;2023-03-23T08:42:06;20.40;55.60
45060;DHT22;30799;49.060;9.312;2023-03-23T08:44:31;20.30;55.60
45060;DHT22;30799;49.060;9.312;2023-03-23T08:46:57;20.30;55.60
45060;DHT22;30799;49.060;9.312;2023-03-23T08:49:23;20.30;55.60
45060;DHT22;30799;49.060;9.312;2023-03-23T08:51:49;20.30;55.60
45060;DHT22;30799;49.060;9.312;2023-03-23T08:54:14;20.30;55.60
45060;DHT22;30799;49.060;9.312;2023-03-23T08:56:40;20.30;55.60
45060;DHT22;30799;49.060;9.312;2023-03-23T08:59:06;20.30;55.50
45060;DHT22;30799;49.060;9.312;2023-03-23T09:01:32;20.30;55.60
45060;DHT22;30799;49.060;9.312;2023-03-23T09:03:58;20.30;55.60
45060;DHT22;30799;49.060;9.312;2023-03-23T09:06:25;20.40;55.70
45060;DHT22;30799;49.060;9.312;2023-03-23T09:08:51;20.40;55.60
45060;DHT22;30799;49.060;9.312;2023-03-23T09:11:16;20.30;55.60
45060;DHT22;30799;49.060;9.312;2023-03-23T09:13:42;20.40;55.60
45060;DHT22;30799;49.060;9.312;2023-03-23T09:16:08;20.30;55.60
45060;DHT22;30799;49.060;9.312;2023-03-23T09:18:33;20.30;55.60
45060;DHT22;30799;49.060;9.312;2023-03-23T09:21:00;20.30;55.60
45060;DHT22;30799;49.060;9.312;2023-03-23T09:23:26;20.30;55.50
45060;DHT22;30799;49.060;9.312;2023-03-23T09:25:52;20.30;55.50
45060;DHT22;30799;49.060;9.312;2023-03-23T09:28:18;20.30;55.60
45060;DHT22;30799;49.060;9.312;2023-03-23T09:30:43;20.30;55.50
45060;DHT22;30799;49.060;9.312;2023-03-23T09:33:09;20.30;55.50
45060;DHT22;30799;49.060;9.312;2023-03-23T09:35:35;20.30;55.50
45060;DHT22;30799;49.060;9.312;2023-03-23T09:38:02;20.30;55.60
45060;DHT22;30799;49.060;9.312;2023-03-23T09:40:47;20.30;55.60
45060;DHT22;30799;49.060;9.312;2023-03-23T09:43:19;20.30;55.60
45060;DHT22;30799;49.060;9.312;2023-03-23T09:51:01;20.30;55.50
45060;DHT22;30799;49.060;9.312;2023-03-23T09:53:30;20.30;55.50
45060;DHT22;30799;49.060;9.312;2023-03-23T09:56:01;20.30;55.50
45060;DHT22;30799;49.060;9.312;2023-03-23T09:58:28;20.30;55.50
45060;DHT22;30799;49.060;9.312;2023-03-23T10:01:31;20.30;55.50
45060;DHT22;30799;49.060;9.312;2023-03-23T10:03:48;20.30;55.50
45060;DHT22;30799;49.060;9.312;2023-03-23T10:06:17;20.30;55.40
45060;DHT22;30799;49.060;9.312;2023-03-23T10:08:48;20.30;55.40
45060;DHT22;30799;49.060;9.312;2023-03-23T10:14:02;20.30;55.40
45060;DHT22;30799;49.060;9.312;2023-03-23T10:16:33;20.30;55.40
45060;DHT22;30799;49.060;9.312;2023-03-23T10:19:16;20.30;55.40
45060;DHT22;30799;49.060;9.312;2023-03-23T10:21:45;20.30;55.50
45060;DHT22;30799;49.060;9.312;2023-03-23T10:24:14;20.30;55.50
45060;DHT22;30799;49.060;9.312;2023-03-23T10:29:46;20.30;55.50
45060;DHT22;30799;49.060;9.312;2023-03-23T10:32:11;20.30;55.50
45060;DHT22;30799;49.060;9.312;2023-03-23T10:34:43;20.30;55.50
45060;DHT22;30799;49.060;9.312;2023-03-23T10:39:44;20.30;55.50
45060;DHT22;30799;49.060;9.312;2023-03-23T10:42:11;20.30;55.40
45060;DHT22;30799;49.060;9.312;2023-03-23T10:44:36;20.30;55.40
45060;DHT22;30799;49.060;9.312;2023-03-23T10:47:04;20.30;55.40
45060;DHT22;30799;49.060;9.312;2023-03-23T10:52:35;20.30;55.40
45060;DHT22;30799;49.060;9.312;2023-03-23T10:55:04;20.30;55.40
45060;DHT22;30799;49.060;9.312;2023-03-23T10:57:30;20.30;55.40
45060;DHT22;30799;49.060;9.312;2023-03-23T11:02:42;20.30;55.40
45060;DHT22;30799;49.060;9.312;2023-03-23T11:05:21;20.30;55.40
45060;DHT22;30799;49.060;9.312;2023-03-23T11:07:56;20.30;55.40
45060;DHT22;30799;49.060;9.312;2023-03-23T11:10:23;20.30;55.40
45060;DHT22;30799;49.060;9.312;2023-03-23T11:12:49;20.30;55.40
45060;DHT22;30799;49.060;9.312;2023-03-23T11:15:26;20.30;55.40
45060;DHT22;30799;49.060;9.312;2023-03-23T11:18:05;20.30;55.50
45060;DHT22;30799;49.060;9.312;2023-03-23T11:20:36;20.30;55.40
45060;DHT22;30799;49.060;9.312;2023-03-23T11:23:10;20.30;55.40
45060;DHT22;30799;49.060;9.312;2023-03-23T11:25:56;20.30;55.40
45060;DHT22;30799;49.060;9.312;2023-03-23T11:28:25;20.30;55.40
45060;DHT22;30799;49.060;9.312;2023-03-23T11:30:53;20.30;55.40
45060;DHT22;30799;49.060;9.312;2023-03-23T11:33:19;20.30;55.40
45060;DHT22;30799;49.060;9.312;2023-03-23T11:35:44;20.30;55.50
45060;DHT22;30799;49.060;9.312;2023-03-23T11:38:18;20.30;55.40
45060;DHT22;30799;49.060;9.312;2023-03-23T11:40:48;20.30;55.50
45060;DHT22;30799;49.060;9.312;2023-03-23T11:43:14;20.30;55.40
45060;DHT22;30799;49.060;9.312;2023-03-23T11:45:46;20.30;55.40
45060;DHT22;30799;49.060;9.312;2023-03-23T11:48:21;20.30;55.50
45060;DHT22;30799;49.060;9.312;2023-03-23T11:50:52;20.30;55.50
45060;DHT22;30799;49.060;9.312;2023-03-23T11:53:27;20.30;55.50
45060;DHT22;30799;49.060;9.312;2023-03-23T11:58:22;20.30;55.50
45060;DHT22;30799;49.060;9.312;2023-03-23T12:00:54;20.30;55.50
45060;DHT22;30799;49.060;9.312;2023-03-23T12:03:32;20.30;55.50
45060;DHT22;30799;49.060;9.312;2023-03-23T12:06:08;20.30;55.50
45060;DHT22;30799;49.060;9.312;2023-03-23T12:13:48;20.30;55.50
45060;DHT22;30799;49.060;9.312;2023-03-23T12:16:32;20.30;55.50
45060;DHT22;30799;49.060;9.312;2023-03-23T12:19:45;20.30;55.50
45060;DHT22;30799;49.060;9.312;2023-03-23T12:24:36;20.30;55.50
45060;DHT22;30799;49.060;9.312;2023-03-23T12:27:11;20.30;55.50
45060;DHT22;30799;49.060;9.312;2023-03-23T12:29:56;20.30;55.40
45060;DHT22;30799;49.060;9.312;2023-03-23T12:32:30;20.30;55.40
45060;DHT22;30799;49.060;9.312;2023-03-23T12:37:49;20.30;55.40
45060;DHT22;30799;49.060;9.312;2023-03-23T12:40:25;20.30;55.40
45060;DHT22;30799;49.060;9.312;2023-03-23T12:43:13;20.30;55.40
45060;DHT22;30799;49.060;9.312;2023-03-23T12:45:50;20.30;55.40
45060;DHT22;30799;49.060;9.312;2023-03-23T12:48:20;20.30;55.40
45060;DHT22;30799;49.060;9.312;2023-03-23T12:51:00;20.30;55.50
45060;DHT22;30799;49.060;9.312;2023-03-23T12:53:31;20.30;55.50
45060;DHT22;30799;49.060;9.312;2023-03-23T12:56:21;20.30;55.50
45060;DHT22;30799;49.060;9.312;2023-03-23T12:58:48;20.30;55.50
45060;DHT22;30799;49.060;9.312;2023-03-23T13:01:24;20.30;55.50
45060;DHT22;30799;49.060;9.312;2023-03-23T13:06:37;20.30;55.50
45060;DHT22;30799;49.060;9.312;2023-03-23T13:11:38;20.30;55.50
45060;DHT22;30799;49.060;9.312;2023-03-23T13:19:24;20.30;55.40
45060;DHT22;30799;49.060;9.312;2023-03-23T13:24:26;20.30;55.50
45060;DHT22;30799;49.060;9.312;2023-03-23T13:26:53;20.30;55.50
45060;DHT22;30799;49.060;9.312;2023-03-23T13:29:23;20.30;56.10
45060;DHT22;30799;49.060;9.312;2023-03-23T13:32:03;20.20;55.40
45060;DHT22;30799;49.060;9.312;2023-03-23T13:34:31;20.30;55.50
45060;DHT22;30799;49.060;9.312;2023-03-23T13:36:58;20.30;55.50
45060;DHT22;30799;49.060;9.312;2023-03-23T13:39:31;20.30;55.50
45060;DHT22;30799;49.060;9.312;2023-03-23T13:42:00;20.30;55.50
45060;DHT22;30799;49.060;9.312;2023-03-23T13:44:26;20.30;55.50
45060;DHT22;30799;49.060;9.312;2023-03-23T13:46:55;20.30;55.50
45060;DHT22;30799;49.060;9.312;2023-03-23T13:49:21;20.30;55.50
45060;DHT22;30799;49.060;9.312;2023-03-23T13:52:01;20.30;55.60
45060;DHT22;30799;49.060;9.312;2023-03-23T13:54:41;20.30;55.50
45060;DHT22;30799;49.060;9.312;2023-03-23T13:57:21;20.20;55.50
45060;DHT22;30799;49.060;9.312;2023-03-23T13:59:49;20.30;55.60
45060;DHT22;30799;49.060;9.312;2023-03-23T14:07:51;20.30;55.50
45060;DHT22;30799;49.060;9.312;2023-03-23T14:10:17;20.30;55.50
45060;DHT22;30799;49.060;9.312;2023-03-23T14:12:43;20.30;55.50
45060;DHT22;30799;49.060;9.312;2023-03-23T14:15:13;20.30;55.50
45060;DHT22;30799;49.060;9.312;2023-03-23T14:17:43;20.30;55.50
45060;DHT22;30799;49.060;9.312;2023-03-23T14:20:14;20.30;55.50
45060;DHT22;30799;49.060;9.312;2023-03-23T14:22:43;20.30;55.50
45060;DHT22;30799;49.060;9.312;2023-03-23T14:25:11;20.30;55.50
45060;DHT22;30799;49.060;9.312;2023-03-23T14:27:38;20.30;55.50
45060;DHT22;30799;49.060;9.312;2023-03-23T14:30:07;20.30;55.50
45060;DHT22;30799;49.060;9.312;2023-03-23T14:32:33;20.30;55.50
45060;DHT22;30799;49.060;9.312;2023-03-23T14:35:00;20.30;55.50
45060;DHT22;30799;49.060;9.312;2023-03-23T14:37:30;20.30;56.10
45060;DHT22;30799;49.060;9.312;2023-03-23T14:39:56;20.30;55.50
45060;DHT22;30799;49.060;9.312;2023-03-23T14:42:30;20.30;55.50
45060;DHT22;30799;49.060;9.312;2023-03-23T14:44:57;20.30;55.50
45060;DHT22;30799;49.060;9.312;2023-03-23T14:47:27;20.30;55.50
45060;DHT22;30799;49.060;9.312;2023-03-23T14:49:56;20.30;55.50
45060;DHT22;30799;49.060;9.312;2023-03-23T14:52:23;20.30;55.70
45060;DHT22;30799;49.060;9.312;2023-03-23T14:54:49;20.30;55.60
45060;DHT22;30799;49.060;9.312;2023-03-23T14:59:50;20.30;55.60
45060;DHT22;30799;49.060;9.312;2023-03-23T15:02:17;20.30;55.70
45060;DHT22;30799;49.060;9.312;2023-03-23T15:04:44;20.30;55.70
45060;DHT22;30799;49.060;9.312;2023-03-23T15:07:11;20.30;55.70
45060;DHT22;30799;49.060;9.312;2023-03-23T15:09:39;20.30;55.70
45060;DHT22;30799;49.060;9.312;2023-03-23T15:12:05;20.30;55.70
45060;DHT22;30799;49.060;9.312;2023-03-23T15:14:41;20.30;55.70
45060;DHT22;30799;49.060;9.312;2023-03-23T15:17:09;20.30;55.70
45060;DHT22;30799;49.060;9.312;2023-03-23T15:19:40;20.20;55.70
45060;DHT22;30799;49.060;9.312;2023-03-23T15:22:14;20.30;55.70
45060;DHT22;30799;49.060;9.312;2023-03-23T15:24:40;20.30;55.70
45060;DHT22;30799;49.060;9.312;2023-03-23T15:27:11;20.30;55.70
45060;DHT22;30799;49.060;9.312;2023-03-23T15:29:52;20.20;55.70
45060;DHT22;30799;49.060;9.312;2023-03-23T15:32:28;20.20;55.70
45060;DHT22;30799;49.060;9.312;2023-03-23T15:34:54;20.20;55.80
45060;DHT22;30799;49.060;9.312;2023-03-23T15:39:46;20.20;55.80
45060;DHT22;30799;49.060;9.312;2023-03-23T15:42:22;20.20;55.80
45060;DHT22;30799;49.060;9.312;2023-03-23T15:44:55;20.20;55.70
45060;DHT22;30799;49.060;9.312;2023-03-23T15:47:20;20.20;55.80
45060;DHT22;30799;49.060;9.312;2023-03-23T15:49:47;20.20;55.80
45060;DHT22;30799;49.060;9.312;2023-03-23T15:52:23;20.20;55.80
45060;DHT22;30799;49.060;9.312;2023-03-23T15:54:48;20.20;55.70
45060;DHT22;30799;49.060;9.312;2023-03-23T15:57:14;20.20;55.70
45060;DHT22;30799;49.060;9.312;2023-03-23T15:59:39;20.20;55.70
45060;DHT22;30799;49.060;9.312;2023-03-23T16:02:08;20.20;55.70
45060;DHT22;30799;49.060;9.312;2023-03-23T16:04:40;20.20;55.70
45060;DHT22;30799;49.060;9.312;2023-03-23T16:07:11;20.20;55.80
45060;DHT22;30799;49.060;9.312;2023-03-23T16:09:39;20.20;55.80
45060;DHT22;30799;49.060;9.312;2023-03-23T16:12:10;20.20;55.80
45060;DHT22;30799;49.060;9.312;2023-03-23T16:14:39;20.20;55.80
45060;DHT22;30799;49.060;9.312;2023-03-23T16:17:08;20.20;55.80
45060;DHT22;30799;49.060;9.312;2023-03-23T16:19:35;20.20;55.90
45060;DHT22;30799;49.060;9.312;2023-03-23T16:22:01;20.20;55.80
45060;DHT22;30799;49.060;9.312;2023-03-23T16:24:28;20.20;55.80
45060;DHT22;30799;49.060;9.312;2023-03-23T16:26:54;20.20;55.90
45060;DHT22;30799;49.060;9.312;2023-03-23T16:29:21;20.20;55.90
45060;DHT22;30799;49.060;9.312;2023-03-23T16:32:08;20.20;55.80
45060;DHT22;30799;49.060;9.312;2023-03-23T16:34:34;20.20;55.90
45060;DHT22;30799;49.060;9.312;2023-03-23T16:37:02;20.20;55.90
45060;DHT22;30799;49.060;9.312;2023-03-23T16:39:29;20.20;55.90
45060;DHT22;30799;49.060;9.312;2023-03-23T16:41:55;20.20;55.90